createdAt,value
2023-03-13T00:00:26.751Z,42.05
2023-03-13T00:02:58.462Z,42.21
2023-03-13T00:05:25.091Z,42.63
2023-03-13T00:07:51.662Z,42.42
2023-03-13T00:10:18.359Z,42.09
2023-03-13T00:12:44.915Z,42.73
2023-03-13T00:15:11.793Z,43.61
2023-03-13T00:18:00.097Z,44.29
2023-03-13T00:20:38.991Z,43.79
2023-03-13T00:25:40.957Z,44.20
2023-03-13T00:38:49.446Z,44.87
2023-03-13T00:41:22.091Z,44.41
2023-03-13T00:43:49.490Z,44.22
2023-03-13T00:46:18.342Z,44.27
2023-03-13T00:48:51.334Z,43.77
2023-03-13T00:51:19.373Z,43.31
2023-03-13T00:54:07.751Z,43.68
2023-03-13T00:56:34.433Z,44.72
2023-03-13T00:59:01.716Z,44.08
2023-03-13T01:01:31.125Z,44.69
2023-03-13T01:04:00.310Z,44.96
2023-03-13T01:06:29.847Z,44.71
2023-03-13T01:09:00.156Z,45.50
2023-03-13T01:11:29.524Z,45.40
2023-03-13T01:14:04.589Z,45.96
2023-03-13T01:16:33.903Z,46.51
2023-03-13T01:19:03.563Z,46.60
2023-03-13T01:21:30.593Z,46.60
2023-03-13T01:23:57.808Z,45.68
2023-03-13T01:26:33.669Z,45.26
2023-03-13T01:29:25.428Z,46.25
2023-03-13T01:32:01.478Z,46.71
2023-03-13T01:34:28.084Z,45.94
2023-03-13T01:36:54.659Z,46.21
2023-03-13T01:39:21.319Z,46.92
2023-03-13T01:41:48.126Z,46.41
2023-03-13T01:44:27.517Z,45.94
2023-03-13T01:46:54.170Z,45.65
2023-03-13T01:49:30.497Z,46.67
2023-03-13T01:52:01.667Z,46.64
2023-03-13T01:54:37.376Z,47.39
2023-03-13T01:57:53.713Z,46.83
2023-03-13T02:00:42.476Z,46.92
2023-03-13T02:03:12.557Z,47.28
2023-03-13T02:05:41.213Z,47.81
2023-03-13T02:08:13.735Z,47.82
2023-03-13T02:10:48.946Z,47.35
2023-03-13T02:13:17.477Z,47.08
2023-03-13T02:15:45.238Z,47.55
2023-03-13T02:18:12.154Z,47.66
2023-03-13T02:20:40.000Z,47.19
2023-03-13T02:23:22.202Z,47.04
2023-03-13T02:25:54.611Z,47.84
2023-03-13T02:28:39.960Z,47.77
2023-03-13T02:31:19.869Z,47.88
2023-03-13T02:33:54.947Z,48.38
2023-03-13T02:36:33.968Z,48.11
2023-03-13T02:39:04.877Z,47.97
2023-03-13T02:41:33.856Z,48.41
2023-03-13T02:44:00.436Z,48.08
2023-03-13T02:46:27.122Z,47.93
2023-03-13T02:48:57.106Z,47.93
2023-03-13T02:51:31.618Z,49.63
2023-03-13T02:54:06.777Z,49.60
2023-03-13T02:56:43.955Z,49.88
2023-03-13T02:59:23.510Z,50.13
2023-03-13T03:01:52.915Z,49.70
2023-03-13T03:04:24.288Z,49.11
2023-03-13T03:06:51.942Z,48.81
2023-03-13T03:09:19.824Z,48.63
2023-03-13T03:11:46.875Z,48.85
2023-03-13T03:14:33.683Z,49.57
2023-03-13T03:17:00.241Z,49.36
2023-03-13T03:19:26.755Z,49.57
2023-03-13T03:21:53.275Z,50.62
2023-03-13T03:24:20.019Z,50.75
2023-03-13T03:26:47.088Z,50.32
2023-03-13T03:29:13.772Z,51.32
2023-03-13T03:32:02.216Z,52.13
2023-03-13T03:34:41.040Z,52.47
2023-03-13T03:37:07.659Z,52.53
2023-03-13T03:39:34.307Z,51.45
2023-03-13T03:42:00.871Z,51.48
2023-03-13T03:44:42.855Z,50.90
2023-03-13T03:47:09.462Z,51.80
2023-03-13T03:49:36.075Z,51.51
2023-03-13T03:52:02.773Z,51.77
2023-03-13T03:54:29.434Z,52.54
2023-03-13T03:56:56.016Z,53.45
2023-03-13T04:02:18.108Z,51.45
2023-03-13T04:04:44.682Z,51.67
2023-03-13T04:07:11.321Z,51.70
2023-03-13T04:09:37.874Z,51.44
2023-03-13T04:12:04.608Z,50.81
2023-03-13T04:14:36.924Z,50.63
2023-03-13T04:17:15.752Z,50.54
2023-03-13T04:19:45.378Z,50.53
2023-03-13T04:22:12.028Z,50.79
2023-03-13T04:24:38.535Z,50.54
2023-03-13T04:27:06.603Z,51.05
2023-03-13T04:29:39.631Z,51.14
2023-03-13T04:32:06.143Z,50.55
2023-03-13T04:34:32.875Z,49.90
2023-03-13T04:36:59.607Z,49.73
2023-03-13T04:39:26.220Z,50.12
2023-03-13T04:41:53.938Z,50.11
2023-03-13T04:47:28.834Z,50.87
2023-03-13T04:49:55.410Z,51.27
2023-03-13T04:52:22.254Z,50.29
2023-03-13T04:54:51.030Z,49.84
2023-03-13T04:57:17.761Z,49.96
2023-03-13T04:59:53.228Z,50.12
2023-03-13T05:02:44.856Z,50.28
2023-03-13T05:05:24.876Z,49.33
2023-03-13T05:07:51.486Z,49.39
2023-03-13T05:10:18.160Z,49.44
2023-03-13T05:12:44.733Z,49.40
2023-03-13T05:15:20.233Z,49.28
2023-03-13T05:17:54.544Z,49.08
2023-03-13T05:20:21.445Z,48.37
2023-03-13T05:22:47.996Z,48.85
2023-03-13T05:25:14.931Z,48.16
2023-03-13T05:27:41.582Z,48.38
2023-03-13T05:32:43.433Z,49.09
2023-03-13T05:35:10.065Z,49.52
2023-03-13T05:37:37.078Z,50.03
2023-03-13T05:40:05.325Z,49.67
2023-03-13T05:42:31.906Z,50.13
2023-03-13T05:48:11.307Z,51.71
2023-03-13T05:50:44.996Z,51.81
2023-03-13T05:53:11.507Z,52.30
2023-03-13T05:55:38.045Z,51.27
2023-03-13T05:58:04.816Z,51.79
2023-03-13T06:00:46.819Z,51.36
2023-03-13T06:03:14.469Z,51.34
2023-03-13T06:05:41.250Z,50.69
2023-03-13T06:08:07.851Z,51.30
2023-03-13T06:10:34.520Z,50.46
2023-03-13T06:13:13.712Z,51.02
2023-03-13T06:15:56.286Z,51.10
2023-03-13T06:18:28.170Z,51.18
2023-03-13T06:20:59.830Z,51.68
2023-03-13T06:23:26.726Z,50.93
2023-03-13T06:26:18.246Z,50.61
2023-03-13T06:29:10.803Z,51.69
2023-03-13T06:31:37.512Z,50.99
2023-03-13T06:34:04.303Z,51.12
2023-03-13T06:36:30.884Z,51.04
2023-03-13T06:38:57.510Z,50.79
2023-03-13T06:41:24.554Z,51.86
2023-03-13T06:43:51.124Z,52.07
2023-03-13T06:46:20.946Z,52.03
2023-03-13T06:48:47.826Z,50.80
2023-03-13T06:51:16.971Z,49.76
2023-03-13T06:53:46.498Z,50.94
2023-03-13T06:56:16.122Z,50.58
2023-03-13T06:58:42.696Z,50.44
2023-03-13T07:01:14.605Z,50.67
2023-03-13T07:03:41.684Z,51.40
2023-03-13T07:06:09.902Z,51.58
2023-03-13T07:08:37.313Z,52.10
2023-03-13T07:11:06.906Z,52.24
2023-03-13T07:13:33.506Z,52.64
2023-03-13T07:21:11.414Z,51.91
2023-03-13T07:23:38.014Z,50.91
2023-03-13T07:26:13.555Z,50.96
2023-03-13T07:28:40.317Z,51.64
2023-03-13T07:31:45.453Z,51.02
2023-03-13T07:34:35.821Z,50.93
2023-03-13T07:37:02.373Z,50.95
2023-03-13T07:39:44.483Z,49.76
2023-03-13T07:42:12.380Z,49.85
2023-03-13T07:44:39.018Z,50.00
2023-03-13T07:47:05.800Z,50.12
2023-03-13T07:49:50.735Z,50.05
2023-03-13T07:52:18.051Z,50.29
2023-03-13T07:54:44.675Z,49.65
2023-03-13T07:57:11.221Z,49.09
2023-03-13T08:00:27.532Z,48.40
2023-03-13T08:03:15.987Z,48.20
2023-03-13T08:05:42.916Z,47.76
2023-03-13T08:08:10.131Z,47.92
2023-03-13T08:10:36.961Z,48.45
2023-03-13T08:13:03.828Z,47.96
2023-03-13T08:15:30.861Z,47.15
2023-03-13T08:17:57.560Z,44.91
2023-03-13T08:20:24.169Z,43.58
2023-03-13T08:22:50.769Z,44.19
2023-03-13T08:25:24.202Z,42.57
2023-03-13T08:27:56.032Z,41.16
2023-03-13T08:30:41.241Z,42.13
2023-03-13T08:33:23.448Z,42.00
2023-03-13T08:35:50.142Z,41.77
2023-03-13T08:38:16.705Z,40.91
2023-03-13T08:40:43.321Z,41.14
2023-03-13T08:43:09.896Z,40.89
2023-03-13T08:45:36.482Z,39.79
2023-03-13T08:50:38.296Z,38.78
2023-03-13T08:53:04.815Z,39.36
2023-03-13T08:55:31.354Z,37.31
2023-03-13T08:57:57.897Z,37.64
2023-03-13T09:00:24.720Z,37.85
2023-03-13T09:03:09.790Z,35.72
2023-03-13T09:06:23.931Z,35.97
2023-03-13T09:08:51.597Z,35.50
2023-03-13T09:11:20.685Z,36.53
2023-03-13T09:13:49.961Z,36.76
2023-03-13T09:16:22.252Z,37.81
2023-03-13T09:18:50.117Z,38.32
2023-03-13T09:21:19.900Z,37.88
2023-03-13T09:23:47.698Z,37.45
2023-03-13T09:26:22.667Z,37.59
2023-03-13T09:28:51.062Z,38.40
2023-03-13T09:31:20.742Z,37.36
2023-03-13T09:34:08.931Z,36.19
2023-03-13T09:39:28.540Z,37.77
2023-03-13T09:42:23.107Z,38.45
2023-03-13T09:45:06.044Z,38.08
2023-03-13T09:47:44.381Z,38.68
2023-03-13T09:50:23.480Z,37.85
2023-03-13T09:55:30.700Z,35.59
2023-03-13T09:58:09.056Z,34.87
2023-03-13T10:00:39.421Z,35.82
2023-03-13T10:03:23.033Z,36.56
2023-03-13T10:05:55.869Z,35.63
2023-03-13T10:08:50.968Z,35.38
2023-03-13T10:11:46.181Z,36.25
2023-03-13T10:14:21.358Z,35.84
2023-03-13T10:17:07.240Z,36.50
2023-03-13T10:19:42.208Z,35.67
2023-03-13T10:22:19.678Z,36.67
2023-03-13T10:25:11.962Z,36.15
2023-03-13T10:27:50.723Z,35.46
2023-03-13T10:30:29.699Z,36.22
2023-03-13T10:33:26.678Z,36.73
2023-03-13T10:36:07.765Z,36.42
2023-03-13T10:38:46.121Z,35.30
2023-03-13T10:41:25.271Z,35.25
2023-03-13T10:44:16.466Z,35.08
2023-03-13T10:46:52.528Z,34.23
2023-03-13T10:49:21.336Z,35.42
2023-03-13T10:51:50.686Z,35.51
2023-03-13T10:54:39.643Z,34.90
2023-03-13T10:57:18.514Z,34.59
2023-03-13T10:59:50.722Z,35.36
2023-03-13T11:02:37.327Z,34.60
2023-03-13T11:05:26.117Z,34.19
2023-03-13T11:07:53.605Z,34.82
2023-03-13T11:10:22.923Z,34.63
2023-03-13T11:12:58.571Z,33.46
2023-03-13T11:15:57.418Z,34.05
2023-03-13T11:18:40.738Z,35.23
2023-03-13T11:21:18.417Z,34.19
2023-03-13T11:34:43.809Z,33.77
2023-03-13T11:37:14.636Z,34.49
2023-03-13T11:40:02.634Z,35.07
2023-03-13T11:42:45.097Z,34.21
2023-03-13T11:45:26.141Z,34.59
2023-03-13T11:48:22.255Z,34.02
2023-03-13T11:51:01.176Z,34.17
2023-03-13T11:53:49.826Z,33.94
2023-03-13T11:56:21.863Z,34.32
2023-03-13T11:58:51.507Z,33.00
2023-03-13T12:01:20.830Z,33.46
2023-03-13T12:03:54.937Z,33.33
2023-03-13T12:06:43.609Z,33.80
2023-03-13T12:09:10.168Z,32.57
2023-03-13T12:12:29.501Z,32.36
2023-03-13T12:15:19.341Z,31.89
2023-03-13T12:17:59.673Z,32.14
2023-03-13T12:20:34.699Z,31.77
2023-03-13T12:23:18.923Z,31.24
2023-03-13T12:25:58.791Z,31.86
2023-03-13T12:28:47.576Z,32.15
2023-03-13T12:31:32.104Z,33.09
2023-03-13T12:34:17.218Z,33.15
2023-03-13T12:36:49.942Z,32.30
2023-03-13T12:39:35.111Z,33.05
2023-03-13T12:42:34.773Z,32.39
2023-03-13T12:45:02.546Z,33.20
2023-03-13T12:47:34.755Z,33.15
2023-03-13T12:50:32.471Z,33.53
2023-03-13T12:53:21.667Z,32.74
2023-03-13T12:56:26.606Z,33.24
2023-03-13T12:59:18.216Z,33.55
2023-03-13T13:01:54.310Z,33.71
2023-03-13T13:04:25.895Z,33.24
2023-03-13T13:06:56.122Z,33.59
2023-03-13T13:09:30.733Z,33.35
2023-03-13T13:12:25.680Z,33.87
2023-03-13T13:14:52.252Z,33.96
2023-03-13T13:18:06.868Z,34.38
2023-03-13T13:20:38.648Z,33.53
2023-03-13T13:23:23.196Z,32.68
2023-03-13T13:25:50.807Z,33.94
2023-03-13T13:28:19.214Z,34.00
2023-03-13T13:30:45.959Z,34.68
2023-03-13T13:33:19.079Z,35.05
2023-03-13T13:35:47.317Z,35.20
2023-03-13T13:38:19.626Z,35.08
2023-03-13T13:41:01.054Z,35.41
2023-03-13T13:43:32.641Z,35.56
2023-03-13T13:46:34.075Z,35.68
2023-03-13T13:49:20.472Z,34.50
2023-03-13T13:52:09.063Z,34.66
2023-03-13T13:54:45.484Z,34.41
2023-03-13T13:57:23.678Z,34.96
2023-03-13T14:00:11.634Z,34.59
2023-03-13T14:02:49.124Z,34.57
2023-03-13T14:05:33.534Z,35.84
2023-03-13T14:08:22.099Z,34.33
2023-03-13T14:11:04.890Z,35.25
2023-03-13T14:13:31.643Z,35.11
2023-03-13T14:16:24.530Z,35.30
2023-03-13T14:19:00.346Z,35.23
2023-03-13T14:21:27.336Z,35.37
2023-03-13T14:23:54.265Z,34.98
2023-03-13T14:26:26.427Z,35.58
2023-03-13T14:29:07.402Z,34.64
2023-03-13T14:31:36.859Z,35.15
2023-03-13T14:34:06.539Z,35.44
2023-03-13T14:42:13.372Z,35.20
2023-03-13T14:44:42.936Z,35.81
2023-03-13T14:47:21.465Z,37.14
2023-03-13T14:50:28.322Z,35.50
2023-03-13T14:56:42.362Z,36.04
2023-03-13T14:59:23.966Z,36.06
2023-03-13T15:02:22.961Z,36.83
2023-03-13T15:05:01.366Z,36.83
2023-03-13T15:07:38.153Z,36.88
2023-03-13T15:10:24.548Z,36.95
2023-03-13T15:12:51.726Z,36.57
2023-03-13T15:15:18.930Z,36.81
2023-03-13T15:17:45.628Z,37.40
2023-03-13T15:20:14.097Z,37.12
2023-03-13T15:22:43.520Z,37.67
2023-03-13T15:25:27.340Z,37.90
2023-03-13T15:28:39.086Z,38.09
2023-03-13T15:31:05.896Z,37.84
2023-03-13T15:33:32.523Z,38.07
2023-03-13T15:35:59.214Z,38.27
2023-03-13T15:38:27.608Z,38.42
2023-03-13T15:40:54.561Z,38.56
2023-03-13T15:43:22.313Z,38.77
2023-03-13T15:45:53.583Z,38.82
2023-03-13T15:48:28.491Z,38.89
2023-03-13T15:50:58.666Z,38.89
2023-03-13T15:53:30.683Z,38.61
2023-03-13T15:55:59.948Z,38.89
2023-03-13T15:58:28.778Z,38.98
2023-03-13T16:00:56.799Z,39.69
2023-03-13T16:03:26.411Z,39.98
2023-03-13T16:05:54.087Z,40.69
2023-03-13T16:08:35.138Z,40.29
2023-03-13T16:11:02.780Z,40.63
2023-03-13T16:16:30.139Z,41.49
2023-03-13T16:18:58.593Z,41.28
2023-03-13T16:21:31.010Z,41.42
2023-03-13T16:23:57.727Z,41.40
2023-03-13T16:26:27.133Z,41.85
2023-03-13T16:28:55.112Z,41.51
2023-03-13T16:31:46.653Z,41.98
2023-03-13T16:34:31.851Z,42.25
2023-03-13T16:37:27.687Z,41.99
2023-03-13T16:39:54.251Z,43.19
2023-03-13T16:42:25.929Z,43.89
2023-03-13T16:44:57.372Z,44.01
2023-03-13T16:47:29.134Z,43.91
2023-03-13T16:49:59.372Z,44.22
2023-03-13T16:52:25.998Z,44.29
2023-03-13T16:54:52.582Z,44.19
2023-03-13T16:57:24.013Z,44.43
2023-03-13T17:00:17.194Z,44.79
2023-03-13T17:02:44.868Z,44.98
2023-03-13T17:05:15.687Z,44.35
2023-03-13T17:07:44.590Z,44.75
2023-03-13T17:10:32.596Z,44.63
2023-03-13T17:13:00.382Z,44.75
2023-03-13T17:15:28.713Z,44.61
2023-03-13T17:20:51.182Z,44.57
2023-03-13T17:23:17.791Z,44.46
2023-03-13T17:25:47.175Z,44.84
2023-03-13T17:28:14.527Z,45.26
2023-03-13T17:30:41.131Z,45.76
2023-03-13T17:37:22.543Z,46.36
2023-03-13T17:39:51.394Z,46.44
2023-03-13T17:42:18.705Z,46.33
2023-03-13T17:44:45.294Z,47.23
2023-03-13T17:47:15.137Z,47.17
2023-03-13T17:49:42.815Z,46.59
2023-03-13T17:52:15.257Z,46.89
2023-03-13T17:54:56.432Z,46.37
2023-03-13T17:57:23.180Z,46.33
2023-03-13T17:59:49.777Z,46.58
2023-03-13T18:02:17.456Z,46.37
2023-03-13T18:04:45.058Z,46.50
2023-03-13T18:07:22.549Z,46.83
2023-03-13T18:09:49.104Z,46.06
2023-03-13T18:12:16.103Z,46.97
2023-03-13T18:14:43.121Z,46.13
2023-03-13T18:17:21.354Z,45.89
2023-03-13T18:19:49.920Z,46.64
2023-03-13T18:22:40.285Z,47.60
2023-03-13T18:25:07.360Z,46.94
2023-03-13T18:27:33.981Z,46.62
2023-03-13T18:30:00.860Z,45.99
2023-03-13T18:32:27.613Z,45.02
2023-03-13T18:34:54.168Z,44.86
2023-03-13T18:40:11.387Z,44.19
2023-03-13T18:42:37.942Z,43.88
2023-03-13T18:45:05.201Z,44.01
2023-03-13T18:47:31.774Z,44.84
2023-03-13T18:49:58.349Z,44.73
2023-03-13T18:52:24.896Z,44.68
2023-03-13T18:54:56.951Z,44.89
2023-03-13T18:57:24.215Z,43.86
2023-03-13T18:59:50.850Z,44.72
2023-03-13T19:02:18.711Z,45.72
2023-03-13T19:04:47.836Z,46.67
2023-03-13T19:07:19.591Z,46.29
2023-03-13T19:09:47.201Z,46.71
2023-03-13T19:15:09.910Z,46.49
2023-03-13T19:17:36.941Z,47.16
2023-03-13T19:20:04.380Z,48.10
2023-03-13T19:22:31.009Z,47.51
2023-03-13T19:24:57.751Z,47.21
2023-03-13T19:27:24.429Z,47.53
2023-03-13T19:30:49.953Z,47.47
2023-03-13T19:33:16.617Z,47.50
2023-03-13T19:35:43.257Z,47.97
2023-03-13T19:38:12.399Z,46.81
2023-03-13T19:40:38.957Z,45.89
2023-03-13T19:43:05.574Z,45.70
2023-03-13T19:45:32.210Z,46.11
2023-03-13T19:47:58.800Z,46.11
2023-03-13T19:50:29.849Z,45.66
2023-03-13T19:52:56.597Z,45.53
2023-03-13T19:55:23.183Z,44.69
2023-03-13T19:58:12.823Z,44.80
2023-03-13T20:00:51.690Z,44.68
2023-03-13T20:03:24.053Z,44.57
2023-03-13T20:05:51.396Z,44.00
2023-03-13T20:08:17.938Z,44.71
2023-03-13T20:10:44.598Z,45.63
2023-03-13T20:13:11.122Z,45.74
2023-03-13T20:15:37.781Z,44.80
2023-03-13T20:18:04.680Z,45.20
2023-03-13T20:20:31.434Z,45.81
2023-03-13T20:22:57.968Z,45.59
2023-03-13T20:25:25.315Z,46.10
2023-03-13T20:27:51.919Z,45.51
2023-03-13T20:30:18.849Z,45.17
2023-03-13T20:32:57.069Z,45.81
2023-03-13T20:35:28.086Z,44.80
2023-03-13T20:37:58.547Z,44.62
2023-03-13T20:40:25.712Z,44.10
2023-03-13T20:42:52.298Z,43.58
2023-03-13T20:45:18.881Z,43.88
2023-03-13T20:47:45.480Z,44.67
2023-03-13T20:50:12.016Z,43.46
2023-03-13T20:52:38.586Z,43.59
2023-03-13T20:55:05.541Z,43.59
2023-03-13T20:57:32.115Z,44.13
2023-03-13T20:59:58.655Z,43.06
2023-03-13T21:02:25.182Z,42.73
2023-03-13T21:04:56.959Z,43.53
2023-03-13T21:07:29.422Z,43.33
2023-03-13T21:10:09.116Z,43.63
2023-03-13T21:12:38.826Z,43.33
2023-03-13T21:15:07.573Z,42.87
2023-03-13T21:17:35.065Z,43.22
2023-03-13T21:20:01.852Z,43.56
2023-03-13T21:22:31.394Z,43.35
2023-03-13T21:24:57.934Z,42.59
2023-03-13T21:27:24.502Z,42.58
2023-03-13T21:29:51.300Z,42.39
2023-03-13T21:32:19.474Z,41.90
2023-03-13T21:34:46.353Z,42.17
2023-03-13T21:40:26.228Z,42.08
2023-03-13T21:42:56.485Z,43.30
2023-03-13T21:45:23.047Z,42.68
2023-03-13T21:47:49.637Z,42.17
2023-03-13T21:50:16.276Z,42.09
2023-03-13T21:52:42.925Z,41.09
2023-03-13T21:55:23.238Z,42.01
2023-03-13T21:58:03.200Z,41.97
2023-03-13T22:00:32.075Z,43.44
2023-03-13T22:02:59.872Z,42.99
2023-03-13T22:05:26.530Z,42.47
2023-03-13T22:08:08.922Z,43.46
2023-03-13T22:10:37.761Z,43.77
2023-03-13T22:13:05.478Z,44.56
2023-03-13T22:15:32.332Z,44.14
2023-03-13T22:17:59.111Z,43.65
2023-03-13T22:20:25.686Z,44.36
2023-03-13T22:22:52.276Z,44.90
2023-03-13T22:25:19.224Z,44.53
2023-03-13T22:27:45.780Z,44.24
2023-03-13T22:30:12.780Z,45.67
2023-03-13T22:32:39.404Z,45.03
2023-03-13T22:35:06.696Z,45.03
2023-03-13T22:37:34.706Z,45.36
2023-03-13T22:40:02.766Z,45.31
2023-03-13T22:42:29.322Z,45.56
2023-03-13T22:44:55.960Z,45.39
2023-03-13T22:47:23.435Z,46.18
2023-03-13T22:49:50.574Z,45.80
2023-03-13T22:52:17.233Z,45.63
2023-03-13T22:54:46.469Z,44.44
2023-03-13T22:57:13.427Z,45.11
2023-03-13T22:59:39.988Z,45.37
2023-03-13T23:02:06.586Z,46.40
2023-03-13T23:04:33.118Z,46.39
2023-03-13T23:06:59.660Z,47.02
2023-03-13T23:09:26.239Z,47.10
2023-03-13T23:11:52.820Z,47.64
2023-03-13T23:14:19.363Z,47.59
2023-03-13T23:16:45.995Z,47.75
2023-03-13T23:19:12.557Z,47.82
2023-03-13T23:21:44.315Z,47.75
2023-03-13T23:24:17.339Z,47.37
2023-03-13T23:26:44.056Z,46.28
2023-03-13T23:29:10.623Z,46.22
2023-03-13T23:31:37.138Z,45.59
2023-03-13T23:34:03.685Z,46.91
2023-03-13T23:36:30.247Z,46.72
2023-03-13T23:38:58.298Z,46.99
2023-03-13T23:41:25.218Z,47.50
2023-03-13T23:43:51.865Z,46.81
2023-03-13T23:46:27.938Z,47.61
2023-03-13T23:48:56.368Z,47.57
2023-03-13T23:51:43.126Z,47.96
2023-03-13T23:54:34.681Z,47.03
2023-03-13T23:57:01.357Z,47.84
2023-03-13T23:59:27.984Z,48.65
